Time;durP1;ratioP1;P1;durP2;ratioP2;P2;SDS_P1;SDS_P2;PMS_P1;PMS_P2;Temp;Humidity;BMP_temperature;BMP_pressure;BME280_temperature;BME280_humidity;BME280_pressure;Samples;Min_cycle;Max_cycle;Signal;HPM_P1;HPM_P2
2024/02/06 00:01:01;;;;;;;8.40;7.60;;;7.80;99.90;;;;;;5005760;28;20053;-79
2024/02/06 00:03:28;;;;;;;9.02;7.80;;;7.80;99.90;;;;;;4999916;28;20441;-78
2024/02/06 00:05:54;;;;;;;8.13;6.85;;;7.70;99.90;;;;;;5004562;28;20046;-79
2024/02/06 00:08:21;;;;;;;10.73;7.32;;;7.80;99.90;;;;;;4999220;28;20074;-79
2024/02/06 00:10:49;;;;;;;8.38;7.65;;;7.80;99.90;;;;;;5002821;28;20042;-78
2024/02/06 00:13:16;;;;;;;8.52;7.88;;;7.80;99.90;;;;;;4987003;28;20042;-79
2024/02/06 00:15:44;;;;;;;9.07;8.27;;;7.80;99.90;;;;;;5001966;28;20132;-80
2024/02/06 00:18:11;;;;;;;8.75;7.60;;;7.80;99.90;;;;;;5004886;28;20041;-79
2024/02/06 00:20:37;;;;;;;10.05;8.48;;;7.80;99.90;;;;;;5002969;28;20049;-80
2024/02/06 00:23:04;;;;;;;13.82;9.00;;;7.80;99.90;;;;;;5020848;28;20379;-80
2024/02/06 00:25:31;;;;;;;10.18;9.23;;;7.80;99.90;;;;;;5005169;28;20525;-79
2024/02/06 00:27:59;;;;;;;9.80;8.82;;;7.80;99.90;;;;;;5010655;28;20508;-81
2024/02/06 00:30:26;;;;;;;11.10;8.90;;;7.80;99.90;;;;;;5007653;28;20489;-79
2024/02/06 00:32:54;;;;;;;10.60;9.50;;;7.80;99.90;;;;;;4993642;28;20112;-80
2024/02/06 00:35:21;;;;;;;9.88;8.90;;;7.80;99.90;;;;;;4994880;28;20050;-79
2024/02/06 00:37:49;;;;;;;12.80;9.20;;;7.80;99.90;;;;;;5026102;28;20041;-79
2024/02/06 00:40:16;;;;;;;14.73;10.93;;;7.80;99.90;;;;;;5002137;28;20070;-78
2024/02/06 00:42:43;;;;;;;11.27;10.18;;;7.80;99.90;;;;;;5003655;28;20049;-80
2024/02/06 00:45:11;;;;;;;14.77;11.90;;;7.90;99.90;;;;;;5004430;28;20054;-80
2024/02/06 00:47:37;;;;;;;15.27;11.88;;;8.00;99.90;;;;;;5005182;28;20092;-78
2024/02/06 00:50:05;;;;;;;14.88;11.73;;;7.90;99.90;;;;;;5007608;28;20124;-80
2024/02/06 00:52:32;;;;;;;14.48;11.35;;;8.00;99.90;;;;;;4993190;28;20058;-79
2024/02/06 00:54:59;;;;;;;14.52;12.98;;;8.00;99.90;;;;;;5030685;28;20049;-80
2024/02/06 00:57:26;;;;;;;20.20;13.93;;;8.00;99.90;;;;;;5005491;28;20108;-79
2024/02/06 00:59:52;;;;;;;14.82;13.23;;;8.00;99.90;;;;;;5004277;28;20235;-79
2024/02/06 01:02:19;;;;;;;16.92;13.88;;;8.10;99.90;;;;;;5007174;28;20073;-80
2024/02/06 01:04:46;;;;;;;15.60;12.68;;;8.10;99.90;;;;;;5007111;28;20096;-79
2024/02/06 01:07:13;;;;;;;16.08;13.95;;;8.10;99.90;;;;;;4997323;28;20046;-80
2024/02/06 01:09:40;;;;;;;17.40;14.98;;;8.10;99.90;;;;;;5026682;28;20151;-80
2024/02/06 01:12:07;;;;;;;22.45;13.55;;;8.10;99.90;;;;;;4999164;28;20053;-80
2024/02/06 01:14:35;;;;;;;17.63;14.18;;;8.10;99.90;;;;;;5007043;28;20501;-79
2024/02/06 01:17:04;;;;;;;15.25;13.77;;;8.10;99.90;;;;;;5010267;28;20088;-79
2024/02/06 01:19:31;;;;;;;19.73;14.27;;;8.10;99.90;;;;;;4992075;28;20048;-79
2024/02/06 01:21:58;;;;;;;15.30;13.75;;;8.10;99.90;;;;;;4992098;28;20121;-78
2024/02/06 01:24:25;;;;;;;15.23;12.23;;;8.20;99.90;;;;;;5001057;28;20068;-78
2024/02/06 01:26:51;;;;;;;16.92;14.52;;;8.10;99.90;;;;;;4991461;28;20054;-79
2024/02/06 01:29:18;;;;;;;19.88;14.48;;;8.20;99.90;;;;;;4996783;28;20057;-79
2024/02/06 01:31:46;;;;;;;19.83;13.40;;;8.10;99.90;;;;;;5001115;28;20099;-77
2024/02/06 01:34:14;;;;;;;16.08;14.57;;;8.10;99.90;;;;;;5000792;28;20052;-79
2024/02/06 01:36:41;;;;;;;18.85;14.30;;;8.10;99.90;;;;;;5008216;28;20045;-79
2024/02/06 01:39:08;;;;;;;14.80;13.13;;;8.20;99.90;;;;;;5009875;28;20081;-79
2024/02/06 01:41:35;;;;;;;17.23;13.80;;;8.20;99.90;;;;;;5008711;28;20053;-81
2024/02/06 01:44:02;;;;;;;17.15;13.68;;;8.20;99.90;;;;;;5023718;28;20609;-81
2024/02/06 01:46:29;;;;;;;22.52;12.93;;;8.20;99.90;;;;;;4993026;28;20493;-80
2024/02/06 01:48:57;;;;;;;15.88;14.23;;;8.20;99.90;;;;;;5011093;28;20096;-78
2024/02/06 01:51:28;;;;;;;16.98;14.90;;;8.30;99.90;;;;;;4985758;28;20042;-78
2024/02/06 01:53:55;;;;;;;17.23;14.35;;;8.30;99.90;;;;;;5002560;28;20541;-80
2024/02/06 01:56:23;;;;;;;15.23;13.30;;;8.20;99.90;;;;;;5010112;28;20460;-79
2024/02/06 01:58:50;;;;;;;15.60;13.77;;;8.30;99.90;;;;;;5005819;28;20034;-80
2024/02/06 02:01:17;;;;;;;16.25;13.73;;;8.30;99.90;;;;;;5003667;28;20088;-79
2024/02/06 02:03:44;;;;;;;16.15;13.30;;;8.20;99.90;;;;;;4993340;28;20064;-78
2024/02/06 02:06:11;;;;;;;14.65;11.52;;;8.30;99.90;;;;;;5007410;28;20125;-79
2024/02/06 02:08:38;;;;;;;14.18;11.40;;;8.30;99.90;;;;;;4990411;28;20115;-79
2024/02/06 02:11:05;;;;;;;12.35;10.80;;;8.20;99.90;;;;;;5010134;28;20604;-79
2024/02/06 02:13:32;;;;;;;15.23;11.43;;;8.20;99.90;;;;;;5006842;28;20045;-78
2024/02/06 02:15:59;;;;;;;17.85;11.38;;;8.10;99.90;;;;;;4988955;28;20045;-79
2024/02/06 02:18:34;;;;;;;18.20;12.18;;;8.10;99.90;;;;;;4999879;28;20038;-79
2024/02/06 02:21:09;;;;;;;17.52;11.90;;;8.20;99.90;;;;;;5022742;28;20034;-79
2024/02/06 02:23:37;;;;;;;;;;;8.20;99.90;;;;;;5010454;28;20046;-79
2024/02/06 02:26:07;;;;;;;15.93;10.75;;;8.10;99.90;;;;;;5006227;28;19921;-79
2024/02/06 02:28:39;;;;;;;14.48;10.18;;;8.10;99.90;;;;;;5007690;28;21076;-79
2024/02/06 02:31:08;;;;;;;18.25;10.23;;;8.10;99.90;;;;;;4989438;28;20468;-80
2024/02/06 02:33:36;;;;;;;13.18;11.10;;;8.10;99.90;;;;;;5005950;28;20140;-78
2024/02/06 02:36:06;;;;;;;15.57;10.13;;;8.00;99.90;;;;;;5009676;28;20704;-80
2024/02/06 02:38:34;;;;;;;20.45;10.50;;;8.00;99.90;;;;;;5006976;28;20746;-80
2024/02/06 02:41:01;;;;;;;15.27;8.63;;;8.00;99.90;;;;;;5012567;28;20037;-79
2024/02/06 02:43:28;;;;;;;13.23;9.70;;;8.00;99.90;;;;;;5008214;28;20061;-78
2024/02/06 02:45:54;;;;;;;20.58;10.55;;;8.00;99.90;;;;;;4998639;28;20049;-79
2024/02/06 02:48:21;;;;;;;17.77;10.82;;;8.00;99.90;;;;;;5008661;28;20037;-80
2024/02/06 02:50:48;;;;;;;19.05;10.38;;;8.00;99.90;;;;;;5006488;28;20058;-80
2024/02/06 02:53:15;;;;;;;18.27;10.32;;;8.00;99.90;;;;;;5003656;28;20054;-83
2024/02/06 02:55:42;;;;;;;13.93;10.40;;;8.00;99.90;;;;;;5005191;28;20456;-81
2024/02/06 02:58:08;;;;;;;17.65;10.93;;;8.10;99.90;;;;;;5005518;28;20449;-81
2024/02/06 03:00:35;;;;;;;20.42;11.32;;;8.10;99.90;;;;;;5009711;28;20050;-82
2024/02/06 03:03:02;;;;;;;17.30;10.43;;;8.10;99.90;;;;;;5009390;28;20109;-81
2024/02/06 03:05:29;;;;;;;16.15;10.88;;;8.10;99.90;;;;;;5008754;28;21358;-80
2024/02/06 03:07:56;;;;;;;14.18;10.50;;;8.10;99.90;;;;;;4995301;28;20053;-83
2024/02/06 03:10:22;;;;;;;19.25;10.68;;;8.10;99.90;;;;;;5002199;28;20049;-82
2024/02/06 03:12:49;;;;;;;14.13;10.02;;;8.10;99.90;;;;;;5002408;28;20137;-81
2024/02/06 03:15:16;;;;;;;14.10;10.43;;;8.10;99.90;;;;;;4997924;28;20049;-81
2024/02/06 03:17:43;;;;;;;15.50;10.90;;;8.10;99.90;;;;;;5003533;28;20050;-81
2024/02/06 03:20:10;;;;;;;17.65;8.35;;;8.10;99.90;;;;;;5006659;28;20123;-80
2024/02/06 03:22:37;;;;;;;15.52;10.27;;;8.10;99.90;;;;;;5008515;28;20076;-79
2024/02/06 03:25:05;;;;;;;15.43;9.73;;;8.10;99.90;;;;;;5002412;28;20050;-77
2024/02/06 03:27:31;;;;;;;19.27;10.70;;;8.10;99.90;;;;;;5003711;28;20080;-81
2024/02/06 03:29:58;;;;;;;21.55;9.15;;;8.00;99.90;;;;;;4996349;28;20052;-81
2024/02/06 03:32:25;;;;;;;21.48;10.45;;;8.10;99.90;;;;;;5005831;28;20053;-82
2024/02/06 03:34:52;;;;;;;15.45;10.05;;;8.10;99.90;;;;;;5001633;28;20086;-82
2024/02/06 03:37:19;;;;;;;18.25;10.13;;;8.10;99.90;;;;;;5005912;28;20220;-83
2024/02/06 03:39:45;;;;;;;17.95;10.38;;;8.10;99.90;;;;;;5013000;28;20046;-82
2024/02/06 03:42:12;;;;;;;15.07;9.70;;;8.10;99.90;;;;;;5009384;28;20038;-83
2024/02/06 03:44:39;;;;;;;16.95;10.05;;;8.10;99.90;;;;;;5006610;28;20132;-82
2024/02/06 03:47:06;;;;;;;18.75;10.35;;;8.20;99.90;;;;;;5012836;28;20099;-82
2024/02/06 03:49:33;;;;;;;16.08;9.50;;;8.10;99.90;;;;;;5006375;28;20065;-80
2024/02/06 03:51:59;;;;;;;16.73;10.18;;;8.10;99.90;;;;;;5010447;28;20886;-81
2024/02/06 03:54:27;;;;;;;10.70;9.05;;;8.10;99.90;;;;;;5014266;28;20045;-83
2024/02/06 03:56:54;;;;;;;12.82;8.88;;;8.10;99.90;;;;;;5012744;28;20681;-82
2024/02/06 03:59:21;;;;;;;15.80;9.73;;;8.10;99.90;;;;;;4990360;28;20045;-84
2024/02/06 04:01:48;;;;;;;19.15;9.05;;;8.20;99.90;;;;;;5014433;28;20038;-83
2024/02/06 04:04:14;;;;;;;22.98;9.77;;;8.20;99.90;;;;;;5005313;28;20038;-82
2024/02/06 04:06:42;;;;;;;15.73;9.57;;;8.20;99.90;;;;;;5027100;28;20057;-84
2024/02/06 04:09:10;;;;;;;20.00;10.23;;;8.20;99.90;;;;;;5018380;28;20053;-85
2024/02/06 04:11:37;;;;;;;17.92;10.57;;;8.30;99.90;;;;;;5006801;28;20053;-85
2024/02/06 04:14:03;;;;;;;13.38;9.77;;;8.30;99.90;;;;;;5000543;28;20542;-87
2024/02/06 04:16:30;;;;;;;17.00;11.00;;;8.30;99.90;;;;;;5006274;28;20103;-86
2024/02/06 04:18:57;;;;;;;23.02;10.90;;;8.40;99.90;;;;;;5004540;28;20042;-86
2024/02/06 04:21:24;;;;;;;11.10;10.20;;;8.40;99.90;;;;;;5014914;28;20648;-86
2024/02/06 04:23:50;;;;;;;13.23;10.55;;;8.40;99.90;;;;;;5018697;28;20117;-86
2024/02/06 04:26:17;;;;;;;12.60;11.52;;;8.50;99.90;;;;;;4993196;28;20042;-89
2024/02/06 04:28:44;;;;;;;12.30;11.35;;;8.50;99.90;;;;;;5017093;28;20148;-84
2024/02/06 04:31:11;;;;;;;16.92;13.02;;;8.50;99.90;;;;;;5006687;28;20050;-85
2024/02/06 04:33:39;;;;;;;14.20;12.30;;;8.50;99.90;;;;;;5015619;28;20996;-87
2024/02/06 04:36:07;;;;;;;20.08;12.00;;;8.60;99.90;;;;;;5007009;28;20052;-85
2024/02/06 04:38:34;;;;;;;13.30;12.07;;;8.60;99.90;;;;;;4999245;28;20057;-86
2024/02/06 04:41:01;;;;;;;13.77;12.45;;;8.60;99.90;;;;;;5014595;28;20066;-84
2024/02/06 04:43:28;;;;;;;15.48;12.98;;;8.70;99.90;;;;;;5017548;28;20085;-86
2024/02/06 04:45:55;;;;;;;13.93;12.57;;;8.60;99.90;;;;;;5029181;28;20113;-87
2024/02/06 04:48:22;;;;;;;16.52;11.85;;;8.60;99.90;;;;;;5009970;28;20113;-84
2024/02/06 04:50:49;;;;;;;13.32;12.18;;;8.60;99.90;;;;;;5019702;28;20060;-82
2024/02/06 04:53:15;;;;;;;13.43;12.07;;;8.60;99.90;;;;;;4996775;28;20527;-80
2024/02/06 04:55:42;;;;;;;16.10;13.45;;;8.60;99.90;;;;;;5002029;28;20061;-85
2024/02/06 04:58:09;;;;;;;12.98;11.55;;;8.60;99.90;;;;;;5011495;28;20508;-84
2024/02/06 05:00:36;;;;;;;13.10;11.80;;;8.60;99.90;;;;;;5013670;28;20115;-83
2024/02/06 05:03:03;;;;;;;13.50;11.50;;;8.50;99.90;;;;;;5017736;28;20485;-84
2024/02/06 05:05:30;;;;;;;12.45;11.45;;;8.50;99.90;;;;;;5009021;28;20118;-85
2024/02/06 05:07:57;;;;;;;13.15;11.85;;;8.50;99.90;;;;;;4997695;28;20049;-87
2024/02/06 05:10:24;;;;;;;14.40;11.68;;;8.60;99.90;;;;;;5014378;28;20056;-84
2024/02/06 05:12:51;;;;;;;19.13;12.35;;;8.60;99.90;;;;;;5006200;28;20529;-85
2024/02/06 05:15:17;;;;;;;12.77;11.68;;;8.50;99.90;;;;;;4999371;28;20052;-85
2024/02/06 05:17:44;;;;;;;13.18;11.35;;;8.50;99.90;;;;;;5007424;28;20053;-85
2024/02/06 05:20:11;;;;;;;13.38;11.85;;;8.50;99.90;;;;;;5021232;28;20041;-83
2024/02/06 05:22:39;;;;;;;14.13;12.90;;;8.50;99.90;;;;;;5011767;28;20962;-85
2024/02/06 05:25:06;;;;;;;14.68;13.38;;;8.60;99.90;;;;;;5008320;28;20146;-84
2024/02/06 05:27:33;;;;;;;14.13;13.13;;;8.60;99.90;;;;;;5010403;28;20052;-83
2024/02/06 05:30:05;;;;;;;20.85;14.23;;;8.70;99.90;;;;;;5015964;28;20437;-81
2024/02/06 05:32:38;;;;;;;14.15;12.85;;;8.70;99.90;;;;;;4997573;28;20540;-83
2024/02/06 05:35:05;;;;;;;18.27;14.45;;;8.70;99.90;;;;;;5011687;28;20084;-81
2024/02/06 05:37:32;;;;;;;14.57;12.23;;;8.70;99.90;;;;;;5006022;28;20045;-84
2024/02/06 05:39:59;;;;;;;19.98;12.38;;;8.60;99.90;;;;;;5002076;28;20116;-83
2024/02/06 05:42:26;;;;;;;18.75;12.65;;;8.60;99.90;;;;;;4999196;28;20125;-83
2024/02/06 05:44:53;;;;;;;14.48;11.55;;;8.50;99.90;;;;;;4998989;28;20057;-85
2024/02/06 05:47:20;;;;;;;20.42;12.13;;;8.50;99.90;;;;;;5008681;28;20580;-86
2024/02/06 05:49:46;;;;;;;13.18;11.02;;;8.50;99.90;;;;;;5006903;28;20469;-84
2024/02/06 05:52:13;;;;;;;16.38;10.75;;;8.40;99.90;;;;;;5002996;28;20514;-84
2024/02/06 05:54:43;;;;;;;15.65;10.00;;;8.40;99.90;;;;;;5010222;28;20962;-82
2024/02/06 05:57:10;;;;;;;12.77;11.05;;;8.40;99.90;;;;;;5003496;28;20536;-83
2024/02/06 05:59:36;;;;;;;16.10;11.35;;;8.40;99.90;;;;;;4996981;28;20049;-83
2024/02/06 06:02:04;;;;;;;15.80;10.90;;;8.30;99.90;;;;;;5009021;28;20137;-86
2024/02/06 06:04:31;;;;;;;15.73;12.05;;;8.40;99.90;;;;;;5009948;28;20609;-82
2024/02/06 06:06:59;;;;;;;14.43;13.05;;;8.40;99.90;;;;;;5009158;28;20073;-83
2024/02/06 06:09:26;;;;;;;17.88;13.13;;;8.50;99.90;;;;;;4994784;28;20544;-83
2024/02/06 06:11:53;;;;;;;13.98;11.85;;;8.40;99.90;;;;;;4997780;28;20180;-82
2024/02/06 06:14:20;;;;;;;23.17;12.10;;;8.40;99.90;;;;;;4994205;28;20042;-85
2024/02/06 06:16:47;;;;;;;19.98;12.38;;;8.40;99.90;;;;;;5013315;28;20068;-85
2024/02/06 06:19:14;;;;;;;15.95;11.43;;;8.50;99.90;;;;;;5002093;28;20053;-84
2024/02/06 06:21:41;;;;;;;12.32;10.82;;;8.50;99.90;;;;;;5001993;28;20060;-84
2024/02/06 06:24:09;;;;;;;20.05;11.68;;;8.50;99.90;;;;;;4991931;28;20069;-84
2024/02/06 06:26:37;;;;;;;16.02;12.55;;;8.50;99.90;;;;;;4995109;28;20038;-84
2024/02/06 06:29:04;;;;;;;14.95;10.73;;;8.50;99.90;;;;;;5004430;28;20050;-83
2024/02/06 06:31:30;;;;;;;12.82;11.23;;;8.50;99.90;;;;;;5005402;28;20059;-83
2024/02/06 06:33:57;;;;;;;16.02;10.43;;;8.50;99.90;;;;;;5008876;28;20053;-83
2024/02/06 06:36:24;;;;;;;15.40;10.02;;;8.50;99.90;;;;;;5008105;28;20405;-84
2024/02/06 06:38:51;;;;;;;15.68;9.52;;;8.40;99.90;;;;;;5000814;28;20041;-84
2024/02/06 06:41:18;;;;;;;14.45;9.85;;;8.40;99.90;;;;;;4994669;28;20034;-88
2024/02/06 06:43:45;;;;;;;13.32;9.27;;;8.40;99.90;;;;;;5011859;28;20048;-84
2024/02/06 06:46:12;;;;;;;26.30;11.13;;;8.40;99.90;;;;;;5013876;28;20045;-83
2024/02/06 06:48:39;;;;;;;21.38;10.32;;;8.40;99.90;;;;;;4995214;28;20083;-85
2024/02/06 06:51:06;;;;;;;18.85;10.10;;;8.40;99.90;;;;;;5012077;28;20129;-82
2024/02/06 06:53:33;;;;;;;15.25;10.52;;;8.40;99.90;;;;;;5008992;28;20049;-84
2024/02/06 06:56:00;;;;;;;10.70;8.80;;;8.40;99.90;;;;;;4995735;28;20056;-83
2024/02/06 06:58:28;;;;;;;11.88;8.63;;;8.40;99.90;;;;;;5006809;28;20041;-86
2024/02/06 07:00:55;;;;;;;11.73;8.23;;;8.40;99.90;;;;;;4994811;28;20049;-84
2024/02/06 07:03:22;;;;;;;14.88;10.15;;;8.40;99.90;;;;;;5016108;28;20061;-84
2024/02/06 07:05:52;;;;;;;11.95;9.05;;;8.40;99.90;;;;;;5004005;28;20056;-86
2024/02/06 07:08:19;;;;;;;12.20;9.80;;;8.40;99.90;;;;;;5001036;28;20088;-86
2024/02/06 07:10:46;;;;;;;12.05;9.30;;;8.50;99.90;;;;;;5003945;28;20065;-83
2024/02/06 07:13:12;;;;;;;19.13;8.75;;;8.50;99.90;;;;;;4998373;28;20472;-84
2024/02/06 07:15:39;;;;;;;18.75;9.88;;;8.40;99.90;;;;;;5007850;28;20634;-85
2024/02/06 07:18:06;;;;;;;11.60;8.25;;;8.30;99.90;;;;;;4999396;28;20060;-83
2024/02/06 07:20:33;;;;;;;24.15;9.82;;;8.30;99.90;;;;;;5028652;28;20053;-83
2024/02/06 07:23:00;;;;;;;19.05;10.77;;;8.20;99.90;;;;;;5013912;28;20053;-84
2024/02/06 07:25:27;;;;;;;20.08;9.82;;;8.20;99.90;;;;;;5009582;28;20133;-84
2024/02/06 07:27:54;;;;;;;20.73;11.10;;;8.20;99.90;;;;;;5004216;28;20137;-84
2024/02/06 07:30:20;;;;;;;14.57;8.82;;;8.20;99.90;;;;;;5010027;28;20029;-86
2024/02/06 07:33:02;;;;;;;16.75;9.85;;;8.20;99.90;;;;;;5000827;28;20041;-85
2024/02/06 07:35:29;;;;;;;20.10;9.98;;;8.20;99.90;;;;;;4991995;28;20055;-78
2024/02/06 07:37:56;;;;;;;15.45;9.60;;;8.20;99.90;;;;;;4997049;28;20073;-78
2024/02/06 07:40:23;;;;;;;17.77;10.60;;;8.20;99.90;;;;;;5016308;28;20052;-78
2024/02/06 07:42:52;;;;;;;11.63;8.98;;;8.20;99.90;;;;;;5004028;28;20045;-79
2024/02/06 07:45:19;;;;;;;15.70;9.27;;;8.20;99.90;;;;;;5010996;28;20137;-77
2024/02/06 07:47:48;;;;;;;11.75;9.52;;;8.30;99.90;;;;;;5033828;28;21224;-79
2024/02/06 07:50:15;;;;;;;18.23;11.15;;;8.30;99.90;;;;;;5015984;28;20367;-78
2024/02/06 07:52:42;;;;;;;11.85;8.82;;;8.40;99.90;;;;;;5016774;28;20603;-78
2024/02/06 07:55:09;;;;;;;20.05;10.30;;;8.40;99.90;;;;;;5014435;28;20135;-79
2024/02/06 07:57:36;;;;;;;17.25;10.60;;;8.40;99.90;;;;;;5014683;28;20548;-78
2024/02/06 08:00:04;;;;;;;14.32;10.52;;;8.40;99.90;;;;;;5005538;28;20056;-78
2024/02/06 08:02:32;;;;;;;15.30;11.05;;;8.40;99.90;;;;;;5011064;28;20034;-78
2024/02/06 08:04:59;;;;;;;22.10;12.15;;;8.50;99.90;;;;;;5011176;28;20045;-78
2024/02/06 08:07:28;;;;;;;11.63;9.80;;;8.50;99.90;;;;;;4998194;28;20049;-78
2024/02/06 08:09:55;;;;;;;13.10;10.60;;;8.50;99.90;;;;;;5015084;28;20057;-78
2024/02/06 08:12:23;;;;;;;16.75;11.75;;;8.50;99.90;;;;;;5007900;28;20168;-77
2024/02/06 08:14:50;;;;;;;12.02;10.63;;;8.60;99.90;;;;;;5013889;28;20041;-78
2024/02/06 08:17:18;;;;;;;14.52;10.90;;;8.60;99.90;;;;;;5014506;28;20049;-79
2024/02/06 08:19:45;;;;;;;12.77;11.30;;;8.60;99.90;;;;;;5014314;28;20040;-79
2024/02/06 08:22:12;;;;;;;14.32;10.63;;;8.60;99.90;;;;;;5021375;28;20046;-79
2024/02/06 08:24:39;;;;;;;15.88;9.90;;;8.60;99.90;;;;;;5011501;28;20265;-80
2024/02/06 08:27:05;;;;;;;17.33;11.98;;;8.60;99.90;;;;;;5013862;28;20045;-79
2024/02/06 08:29:32;;;;;;;13.80;12.35;;;8.70;99.90;;;;;;5017081;28;20069;-78
2024/02/06 08:31:59;;;;;;;22.10;14.02;;;8.70;99.90;;;;;;5012024;28;20058;-77
2024/02/06 08:34:29;;;;;;;17.17;13.68;;;8.70;99.90;;;;;;5012436;28;20053;-78
2024/02/06 08:36:55;;;;;;;20.30;11.70;;;8.70;99.90;;;;;;5016720;28;20056;-76
2024/02/06 08:39:25;;;;;;;16.73;13.73;;;8.70;99.90;;;;;;5016366;28;20303;-78
2024/02/06 08:41:52;;;;;;;17.90;11.98;;;8.70;99.90;;;;;;5006992;28;20053;-79
2024/02/06 08:44:19;;;;;;;21.05;12.07;;;8.70;99.90;;;;;;5006869;28;20270;-80
2024/02/06 08:46:46;;;;;;;20.05;11.55;;;8.70;99.90;;;;;;5011293;28;20037;-78
2024/02/06 08:49:13;;;;;;;16.77;12.82;;;8.80;99.90;;;;;;4997709;28;20076;-79
2024/02/06 08:51:40;;;;;;;13.70;10.52;;;8.70;99.90;;;;;;5003169;28;20100;-78
2024/02/06 08:54:07;;;;;;;15.60;12.30;;;8.70;99.90;;;;;;5018557;28;20064;-78
2024/02/06 08:56:33;;;;;;;20.38;13.48;;;8.70;99.90;;;;;;5017552;28;22773;-78
2024/02/06 08:59:01;;;;;;;14.20;11.07;;;8.80;99.90;;;;;;5003513;28;20089;-80
2024/02/06 09:01:28;;;;;;;17.27;11.88;;;8.80;99.90;;;;;;5009809;28;20632;-78
2024/02/06 09:03:55;;;;;;;25.90;13.07;;;8.90;99.90;;;;;;5010750;28;20072;-80
2024/02/06 09:06:30;;;;;;;;;;;8.80;99.90;;;;;;5028320;28;20046;-80
2024/02/06 09:09:01;;;;;;;18.42;11.73;;;8.80;99.90;;;;;;5009479;28;19921;-77
2024/02/06 09:11:27;;;;;;;14.07;10.40;;;8.80;99.90;;;;;;5017887;28;20045;-80
2024/02/06 09:13:55;;;;;;;14.57;11.50;;;8.80;99.90;;;;;;5000441;28;20081;-79
2024/02/06 09:16:22;;;;;;;24.58;11.60;;;8.80;99.90;;;;;;5021180;28;20049;-80
2024/02/06 09:18:49;;;;;;;21.48;12.77;;;8.70;99.90;;;;;;5027053;28;20053;-80
2024/02/06 09:21:17;;;;;;;18.25;12.55;;;8.70;99.90;;;;;;5018613;28;20084;-80
2024/02/06 09:23:44;;;;;;;16.88;13.07;;;8.70;99.90;;;;;;5017195;28;20108;-80
2024/02/06 09:26:11;;;;;;;21.13;15.20;;;8.80;99.90;;;;;;5012589;28;20046;-79
2024/02/06 09:28:38;;;;;;;14.20;12.85;;;8.80;99.90;;;;;;5007492;28;20053;-83
2024/02/06 09:31:06;;;;;;;18.02;13.98;;;8.80;99.90;;;;;;5009802;28;20053;-82
2024/02/06 09:33:33;;;;;;;19.60;12.73;;;8.90;99.90;;;;;;5010579;28;20211;-79
2024/02/06 09:36:02;;;;;;;16.50;14.85;;;8.90;99.90;;;;;;5000821;28;20061;-80
2024/02/06 09:38:29;;;;;;;14.65;11.38;;;8.90;99.90;;;;;;5002669;28;20046;-80
2024/02/06 09:40:56;;;;;;;22.40;11.45;;;8.80;99.90;;;;;;5017235;28;20042;-81
2024/02/06 09:43:24;;;;;;;19.42;11.18;;;8.70;99.90;;;;;;5007767;28;20671;-82
2024/02/06 09:45:53;;;;;;;16.08;11.05;;;8.70;99.90;;;;;;5006402;28;20045;-87
2024/02/06 09:48:24;;;;;;;21.58;10.85;;;8.70;99.90;;;;;;5010978;28;20710;-87
2024/02/06 09:50:55;;;;;;;21.60;10.90;;;8.70;99.90;;;;;;5014340;28;20046;-88
2024/02/06 09:53:30;;;;;;;14.20;10.40;;;8.60;99.90;;;;;;5013680;28;20042;-89
2024/02/06 09:55:58;;;;;;;17.15;11.45;;;8.60;99.90;;;;;;4993115;28;20046;-86
2024/02/06 09:58:26;;;;;;;16.52;11.48;;;8.60;99.90;;;;;;5008391;28;20111;-85
2024/02/06 10:00:54;;;;;;;20.20;11.02;;;8.60;99.90;;;;;;5012383;28;20034;-86
2024/02/06 10:03:25;;;;;;;18.55;10.35;;;8.60;99.90;;;;;;5008877;28;20224;-89
2024/02/06 10:05:54;;;;;;;19.48;12.30;;;8.60;99.90;;;;;;4996406;28;20452;-87
2024/02/06 10:08:22;;;;;;;17.70;10.57;;;8.60;99.90;;;;;;5018902;28;20157;-87
2024/02/06 10:10:49;;;;;;;15.70;10.18;;;8.60;99.90;;;;;;4995209;28;20087;-87
2024/02/06 10:13:16;;;;;;;16.33;10.38;;;8.70;99.90;;;;;;4997144;28;20033;-85
2024/02/06 10:15:43;;;;;;;14.63;9.60;;;8.70;99.90;;;;;;5010479;28;20464;-85
2024/02/06 10:18:10;;;;;;;24.60;11.13;;;8.70;99.90;;;;;;5007860;28;20060;-88
2024/02/06 10:20:44;;;;;;;18.00;11.70;;;8.80;99.90;;;;;;5010070;28;20265;-84
2024/02/06 10:23:15;;;;;;;15.68;10.45;;;8.80;99.90;;;;;;4999288;28;20068;-85
2024/02/06 10:25:48;;;;;;;18.35;10.88;;;8.80;99.90;;;;;;4998202;28;20046;-85
2024/02/06 10:28:25;;;;;;;16.10;11.40;;;8.90;99.90;;;;;;5011511;28;20057;-84
2024/02/06 10:30:52;;;;;;;15.88;9.27;;;8.90;99.90;;;;;;4999028;28;20065;-89
2024/02/06 10:33:19;;;;;;;13.70;11.02;;;8.90;99.90;;;;;;5006552;28;20038;-86
2024/02/06 10:35:46;;;;;;;15.13;10.32;;;9.00;99.90;;;;;;5005399;28;20049;-86
2024/02/06 10:38:16;;;;;;;17.63;10.82;;;9.00;99.90;;;;;;5011066;28;20073;-85
2024/02/06 10:40:45;;;;;;;15.05;11.50;;;9.10;99.90;;;;;;5005159;28;20529;-86
2024/02/06 10:43:13;;;;;;;13.68;11.02;;;9.10;99.90;;;;;;5008994;28;20057;-82
2024/02/06 10:46:01;;;;;;;19.45;12.18;;;9.20;99.90;;;;;;4998309;28;21106;-88
2024/02/06 10:48:28;;;;;;;16.45;11.35;;;9.20;99.90;;;;;;5001287;28;20049;-87
2024/02/06 10:51:01;;;;;;;14.15;10.88;;;9.20;99.90;;;;;;5010327;28;20045;-85
2024/02/06 10:53:28;;;;;;;14.27;12.85;;;9.30;99.90;;;;;;5007032;28;20153;-84
2024/02/06 10:56:05;;;;;;;13.13;11.93;;;9.40;99.90;;;;;;4996395;28;20065;-83
2024/02/06 10:58:41;;;;;;;13.73;12.35;;;9.50;99.90;;;;;;5012450;28;20045;-85
2024/02/06 11:01:12;;;;;;;15.07;13.05;;;9.60;99.90;;;;;;4997463;28;20049;-85
2024/02/06 11:03:44;;;;;;;14.55;13.20;;;9.70;99.90;;;;;;5000488;28;20045;-87
2024/02/06 11:06:26;;;;;;;15.60;12.38;;;9.70;99.90;;;;;;5001033;28;20087;-86
2024/02/06 11:09:01;;;;;;;14.30;11.43;;;9.70;99.90;;;;;;4961698;28;1050652;-86
2024/02/06 11:11:28;;;;;;;;;;;9.60;99.90;;;;;;4993100;28;20120;-87
2024/02/06 11:13:56;;;;;;;9.98;7.45;;;9.50;99.90;;;;;;4995001;28;20328;-83
2024/02/06 11:16:25;;;;;;;10.68;7.97;;;9.40;99.90;;;;;;5014579;28;20181;-84
2024/02/06 11:19:16;;;;;;;11.52;6.97;;;9.40;99.90;;;;;;4996744;28;20577;-87
2024/02/06 11:21:49;;;;;;;10.05;7.63;;;9.30;99.90;;;;;;5005305;28;21111;-83
2024/02/06 11:24:19;;;;;;;11.18;7.03;;;9.20;99.90;;;;;;5016328;28;20681;-84
2024/02/06 11:26:46;;;;;;;13.13;7.20;;;9.20;99.90;;;;;;5011603;28;20437;-86
2024/02/06 11:29:13;;;;;;;15.10;7.75;;;9.20;99.90;;;;;;5013212;28;20034;-84
2024/02/06 11:31:40;;;;;;;9.90;6.88;;;9.10;99.90;;;;;;5015509;28;20041;-85
2024/02/06 11:34:20;;;;;;;7.55;6.00;;;9.00;99.90;;;;;;5013711;28;20049;-85
2024/02/06 11:36:47;;;;;;;10.30;6.38;;;9.00;99.90;;;;;;5016559;28;20053;-87
2024/02/06 11:39:17;;;;;;;11.68;7.28;;;8.90;99.90;;;;;;5012319;28;20041;-83
2024/02/06 11:41:49;;;;;;;11.57;6.95;;;8.90;99.90;;;;;;5010925;28;20040;-83
2024/02/06 11:44:23;;;;;;;14.70;7.53;;;8.90;99.90;;;;;;5007080;28;20052;-83
2024/02/06 11:46:54;;;;;;;12.30;8.13;;;9.00;99.90;;;;;;5009421;28;20052;-85
2024/02/06 11:49:23;;;;;;;12.00;7.68;;;9.00;99.90;;;;;;5002220;28;20616;-86
2024/02/06 11:51:55;;;;;;;11.05;7.70;;;9.00;99.90;;;;;;5001658;28;20045;-85
2024/02/06 11:54:24;;;;;;;14.25;9.13;;;9.00;99.90;;;;;;5012962;28;20164;-83
2024/02/06 11:56:52;;;;;;;11.63;8.90;;;9.00;99.90;;;;;;5005358;28;20045;-85
2024/02/06 11:59:19;;;;;;;12.27;7.35;;;9.10;99.90;;;;;;5003044;28;20049;-83
2024/02/06 12:01:46;;;;;;;11.55;7.15;;;9.10;99.90;;;;;;5003477;28;20052;-88
2024/02/06 12:04:23;;;;;;;13.68;7.50;;;9.20;99.90;;;;;;5003435;28;20061;-85
2024/02/06 12:06:50;;;;;;;10.80;8.15;;;9.30;99.90;;;;;;5009492;28;20046;-88
2024/02/06 12:09:17;;;;;;;12.25;7.82;;;9.30;99.90;;;;;;5009225;28;20046;-84
2024/02/06 12:11:49;;;;;;;8.45;7.35;;;9.40;99.90;;;;;;5010191;28;20049;-84
2024/02/06 12:14:16;;;;;;;10.18;8.13;;;9.40;99.90;;;;;;5010514;28;20120;-83
2024/02/06 12:16:45;;;;;;;11.18;7.70;;;9.50;99.90;;;;;;5009365;28;20034;-83
2024/02/06 12:19:12;;;;;;;14.15;7.78;;;9.50;99.90;;;;;;5012376;28;20738;-84
2024/02/06 12:21:39;;;;;;;10.35;6.93;;;9.50;99.90;;;;;;5000832;28;20041;-82
2024/02/06 12:24:07;;;;;;;8.20;7.35;;;9.50;99.90;;;;;;4999059;28;20038;-85
2024/02/06 12:26:34;;;;;;;12.25;8.65;;;9.60;99.90;;;;;;5013645;28;20112;-84
2024/02/06 12:29:05;;;;;;;9.77;8.05;;;9.60;99.90;;;;;;5016379;28;20053;-85
2024/02/06 12:31:37;;;;;;;9.38;8.40;;;9.60;99.90;;;;;;5015058;28;20044;-86
2024/02/06 12:34:06;;;;;;;9.75;8.80;;;9.60;99.90;;;;;;5016033;28;20720;-83
2024/02/06 12:36:37;;;;;;;11.48;8.43;;;9.60;99.90;;;;;;5009541;28;20050;-80
2024/02/06 12:39:12;;;;;;;14.13;9.88;;;9.60;99.90;;;;;;5007440;28;20046;-80
2024/02/06 12:41:39;;;;;;;13.90;8.52;;;9.60;99.90;;;;;;5009391;28;20044;-80
2024/02/06 12:44:07;;;;;;;9.27;8.38;;;9.60;99.90;;;;;;4996468;28;20104;-79